Time,TemperatureF,DewpointF,PressureIn,WindDirection,WindDirectionDegrees,WindSpeedMPH,WindSpeedGustMPH,Humidity,HourlyPrecipIn,Conditions,Clouds,dailyrainin,SolarRadiationWatts/m^2,SoftwareType,DateUTC
2013-01-21 00:00:00,46.2,33.1,30.15,SW,225,0.0,0.0,60,0.00,,,0.00,0.00,VWS V14.01,2013-01-21 08:00:00,
2013-01-21 00:05:00,46.0,33.0,30.15,SSW,202,1.6,2.5,60,0.00,,,0.00,0.00,VWS V14.01,2013-01-21 08:05:00,
2013-01-21 00:10:00,46.4,33.7,30.15,SSW,202,3.1,3.6,61,0.00,,,0.00,0.00,VWS V14.01,2013-01-21 08:10:00,
2013-01-21 00:15:00,46.0,33.8,30.15,SSW,202,0.0,0.0,62,0.00,,,0.00,0.00,VWS V14.01,2013-01-21 08:15:00,
2013-01-21 00:20:00,45.9,34.0,30.12,SSW,202,2.5,3.4,63,0.00,,,0.00,0.00,VWS V14.01,2013-01-21 08:20:00,
2013-01-21 00:25:00,46.0,34.2,30.12,SW,225,2.0,3.4,63,0.00,,,0.00,0.00,VWS V14.01,2013-01-21 08:25:00,
2013-01-21 00:30:00,46.0,34.2,30.12,SW,225,2.7,2.7,63,0.00,,,0.00,0.00,VWS V14.01,2013-01-21 08:30:00,
2013-01-21 00:35:00,46.0,34.6,30.12,SSW,202,2.9,3.1,64,0.00,,,0.00,0.00,VWS V14.01,2013-01-21 08:35:00,
2013-01-21 00:40:00,46.2,34.3,30.12,SSW,202,2.7,3.4,63,0.00,,,0.00,0.00,VWS V14.01,2013-01-21 08:40:00,
2013-01-21 00:45:00,46.0,34.6,30.12,SSW,202,2.0,2.7,64,0.00,,,0.00,0.00,VWS V14.01,2013-01-21 08:45:00,
2013-01-21 00:51:00,45.9,34.4,30.12,SW,225,2.0,3.4,64,0.00,,,0.00,0.00,VWS V14.01,2013-01-21 08:51:00,
2013-01-21 00:56:00,45.7,34.2,30.12,SSW,202,2.0,3.4,64,0.00,,,0.00,0.00,VWS V14.01,2013-01-21 08:56:00,
2013-01-21 01:00:00,44.8,34.1,30.09,SSW,202,2.7,2.9,66,0.00,,,0.00,0.00,VWS V14.01,2013-01-21 09:00:00,
2013-01-21 01:01:00,45.9,34.8,30.12,WSW,248,2.7,2.7,65,0.00,,,0.00,0.00,VWS V14.01,2013-01-21 09:01:00,
2013-01-21 01:08:00,45.3,34.3,30.12,SSW,202,0.0,2.7,65,0.00,,,0.00,0.00,VWS V14.01,2013-01-21 09:08:00,
2013-01-21 01:13:00,44.8,34.1,30.12,SSW,202,1.6,2.7,66,0.00,,,0.00,0.00,VWS V14.01,2013-01-21 09:13:00,
2013-01-21 01:15:00,44.2,34.0,30.09,SSW,202,2.0,2.9,67,0.00,,,0.00,0.00,VWS V14.01,2013-01-21 09:15:00,
2013-01-21 01:18:00,44.2,33.6,30.12,SSW,202,0.0,2.5,66,0.00,,,0.00,0.00,VWS V14.01,2013-01-21 09:18:00,
2013-01-21 01:23:00,44.4,33.8,30.12,SW,225,2.5,2.9,66,0.00,,,0.00,0.00,VWS V14.01,2013-01-21 09:23:00,
2013-01-21 01:28:00,44.2,34.0,30.12,SSW,202,2.2,2.9,67,0.00,,,0.00,0.00,VWS V14.01,2013-01-21 09:28:00,
2013-01-21 01:30:00,44.2,34.4,30.09,SSW,202,2.7,3.6,68,0.00,,,0.00,0.00,VWS V14.01,2013-01-21 09:30:00,
2013-01-21 01:33:00,44.1,33.8,30.12,SSW,202,0.0,0.9,67,0.00,,,0.00,0.00,VWS V14.01,2013-01-21 09:33:00,
2013-01-21 01:38:00,44.6,34.0,30.12,SSW,202,2.5,3.1,66,0.00,,,0.00,0.00,VWS V14.01,2013-01-21 09:38:00,
2013-01-21 01:43:00,44.8,34.1,30.12,SSW,202,2.7,3.4,66,0.00,,,0.00,0.00,VWS V14.01,2013-01-21 09:43:00,
2013-01-21 01:45:00,45.3,34.7,30.09,SW,225,2.0,3.6,66,0.00,,,0.00,0.00,VWS V14.01,2013-01-21 09:45:00,
2013-01-21 01:49:00,44.8,34.1,30.12,SSW,202,2.5,2.7,66,0.00,,,0.00,0.00,VWS V14.01,2013-01-21 09:49:00,
2013-01-21 01:54:00,44.8,34.1,30.09,SSW,202,0.0,2.7,66,0.00,,,0.00,0.00,VWS V14.01,2013-01-21 09:54:00,
2013-01-21 01:59:00,44.8,34.1,30.09,SSW,202,2.5,2.9,66,0.00,,,0.00,0.00,VWS V14.01,2013-01-21 09:59:00,
2013-01-21 02:00:00,44.8,34.1,30.09,WNW,292,0.0,2.5,66,0.00,,,0.00,0.00,VWS V14.01,2013-01-21 10:00:00,
2013-01-21 02:04:00,44.6,34.0,30.09,SSW,202,2.0,2.7,66,0.00,,,0.00,0.00,VWS V14.01,2013-01-21 10:04:00,
2013-01-21 02:09:00,44.4,34.2,30.09,SSW,202,2.7,2.9,67,0.00,,,0.00,0.00,VWS V14.01,2013-01-21 10:09:00,
2013-01-21 02:14:00,44.2,34.0,30.09,SSW,202,0.0,2.9,67,0.00,,,0.00,0.00,VWS V14.01,2013-01-21 10:14:00,
2013-01-21 02:15:00,44.6,33.6,30.09,WSW,248,0.0,0.0,65,0.00,,,0.00,0.00,VWS V14.01,2013-01-21 10:15:00,
2013-01-21 02:19:00,44.1,34.2,30.09,West,270,2.2,2.2,68,0.00,,,0.00,0.00,VWS V14.01,2013-01-21 10:19:00,
2013-01-21 02:24:00,44.2,34.4,30.09,SSW,202,2.2,3.4,68,0.00,,,0.00,0.00,VWS V14.01,2013-01-21 10:24:00,
2013-01-21 02:29:00,44.2,34.4,30.09,SW,225,1.3,3.6,68,0.00,,,0.00,0.00,VWS V14.01,2013-01-21 10:29:00,
2013-01-21 02:30:00,45.5,34.0,30.09,SSW,202,3.6,3.8,64,0.00,,,0.00,0.00,VWS V14.01,2013-01-21 10:30:00,
2013-01-21 02:34:00,44.2,34.4,30.09,SSW,202,2.0,3.4,68,0.00,,,0.00,0.00,VWS V14.01,2013-01-21 10:34:00,
2013-01-21 02:39:00,44.8,34.5,30.09,SSW,202,2.5,3.4,67,0.00,,,0.00,0.00,VWS V14.01,2013-01-21 10:39:00,
2013-01-21 02:44:00,45.1,34.5,30.09,SW,225,2.7,3.6,66,0.00,,,0.00,0.00,VWS V14.01,2013-01-21 10:44:00,
2013-01-21 02:45:00,47.5,33.5,30.09,South,180,0.0,4.9,58,0.00,,,0.00,0.00,VWS V14.01,2013-01-21 10:45:00,
2013-01-21 02:49:00,45.1,34.5,30.09,SSW,202,0.0,2.5,66,0.00,,,0.00,0.00,VWS V14.01,2013-01-21 10:49:00,
2013-01-21 02:54:00,45.0,34.3,30.09,SSW,202,0.0,2.5,66,0.00,,,0.00,0.00,VWS V14.01,2013-01-21 10:54:00,
2013-01-21 02:59:00,44.8,34.1,30.09,WSW,248,0.0,2.5,66,0.00,,,0.00,0.00,VWS V14.01,2013-01-21 10:59:00,
2013-01-21 03:00:00,47.3,32.4,30.06,SSW,202,2.2,4.0,56,0.00,,,0.00,0.00,VWS V14.01,2013-01-21 11:00:00,
2013-01-21 03:04:00,44.6,33.6,30.09,SSW,202,0.0,0.0,65,0.00,,,0.00,0.00,VWS V14.01,2013-01-21 11:04:00,
2013-01-21 03:09:00,44.6,34.0,30.09,SSW,202,0.0,0.0,66,0.00,,,0.00,0.00,VWS V14.01,2013-01-21 11:09:00,
2013-01-21 03:14:00,44.6,33.6,30.09,SSW,202,0.0,0.0,65,0.00,,,0.00,0.00,VWS V14.01,2013-01-21 11:14:00,
2013-01-21 03:15:00,47.3,32.4,30.06,South,180,2.0,4.9,56,0.00,,,0.00,0.00,VWS V14.01,2013-01-21 11:15:00,
2013-01-21 03:20:00,44.2,34.0,30.09,SW,225,0.0,0.0,67,0.00,,,0.00,0.00,VWS V14.01,2013-01-21 11:20:00,
2013-01-21 03:25:00,44.2,34.0,30.09,SW,225,3.1,3.1,67,0.00,,,0.00,0.00,VWS V14.01,2013-01-21 11:25:00,
2013-01-21 03:30:00,45.5,34.0,30.09,SSW,202,3.6,3.8,64,0.00,,,0.00,0.00,VWS V14.01,2013-01-21 11:30:00,
2013-01-21 03:35:00,46.8,33.6,30.09,SSW,202,3.1,4.9,60,0.00,,,0.00,0.00,VWS V14.01,2013-01-21 11:35:00,
2013-01-21 03:40:00,48.0,34.0,30.09,SSW,202,2.0,4.9,58,0.00,,,0.00,0.00,VWS V14.01,2013-01-21 11:40:00,
2013-01-21 03:45:00,47.5,33.5,30.09,South,180,0.0,0.0,58,0.00,,,0.00,0.00,VWS V14.01,2013-01-21 11:45:00,
2013-01-21 03:50:00,46.9,33.0,30.06,SSW,202,0.0,3.8,58,0.00,,,0.00,0.00,VWS V14.01,2013-01-21 11:50:00,
2013-01-21 03:55:00,47.1,32.7,30.06,SSW,202,3.6,3.8,57,0.00,,,0.00,0.00,VWS V14.01,2013-01-21 11:55:00,
2013-01-21 04:00:00,47.3,32.4,30.06,SSW,202,2.0,2.2,56,0.00,,,0.00,0.00,VWS V14.01,2013-01-21 12:00:00,
2013-01-21 04:05:00,47.5,32.6,30.06,South,180,2.7,4.9,56,0.00,,,0.00,0.00,VWS V14.01,2013-01-21 12:05:00,
2013-01-21 04:10:00,47.5,32.6,30.06,South,180,2.0,4.9,56,0.00,,,0.00,0.00,VWS V14.01,2013-01-21 12:10:00,
2013-01-21 04:15:00,47.3,32.4,30.06,South,180,1.3,2.0,56,0.00,,,0.00,0.00,VWS V14.01,2013-01-21 12:15:00,
2013-01-21 04:20:00,46.8,32.3,30.06,South,180,0.0,2.0,57,0.00,,,0.00,0.00,VWS V14.01,2013-01-21 12:20:00,
2013-01-21 04:25:00,46.8,32.3,30.06,East,90,0.0,5.4,57,0.00,,,0.00,0.00,VWS V14.01,2013-01-21 12:25:00,
2013-01-21 04:30:00,45.7,32.2,30.06,SSW,202,1.6,1.6,59,0.00,,,0.00,0.00,VWS V14.01,2013-01-21 12:30:00,
2013-01-21 04:35:00,45.1,32.1,30.06,SSW,202,2.0,2.9,60,0.00,,,0.00,0.00,VWS V14.01,2013-01-21 12:35:00,
2013-01-21 04:40:00,45.1,32.5,30.06,SSE,158,0.0,2.9,61,0.00,,,0.00,0.00,VWS V14.01,2013-01-21 12:40:00,
2013-01-21 04:45:00,45.1,32.5,30.06,SSE,158,0.0,0.0,61,0.00,,,0.00,0.00,VWS V14.01,2013-01-21 12:45:00,
2013-01-21 04:50:00,44.6,32.8,30.06,South,180,0.0,2.5,63,0.00,,,0.00,0.00,VWS V14.01,2013-01-21 12:50:00,
2013-01-21 04:55:00,44.8,33.0,30.06,NNW,338,2.7,4.9,63,0.00,,,0.00,0.00,VWS V14.01,2013-01-21 12:55:00,
2013-01-21 05:00:00,44.6,32.8,30.06,South,180,0.0,0.0,63,0.00,,,0.00,0.00,VWS V14.01,2013-01-21 13:00:00,
2013-01-21 05:05:00,44.1,33.1,30.06,South,180,0.0,0.0,65,0.00,,,0.00,0.00,VWS V14.01,2013-01-21 13:05:00,
2013-01-21 05:10:00,43.9,33.3,30.06,South,180,3.1,3.1,66,0.00,,,0.00,0.00,VWS V14.01,2013-01-21 13:10:00,
2013-01-21 05:15:00,43.7,33.5,30.06,South,180,0.0,0.0,67,0.00,,,0.00,0.00,VWS V14.01,2013-01-21 13:15:00,
2013-01-21 05:20:00,43.5,34.4,30.06,SSW,202,0.0,0.0,70,0.00,,,0.00,0.00,VWS V14.01,2013-01-21 13:20:00,
2013-01-21 05:25:00,43.3,33.9,30.06,WNW,292,0.0,2.5,69,0.00,,,0.00,0.00,VWS V14.01,2013-01-21 13:25:00,
2013-01-21 05:30:00,43.3,34.2,30.06,SSW,202,0.0,0.0,70,0.00,,,0.00,0.00,VWS V14.01,2013-01-21 13:30:00,
2013-01-21 05:35:00,43.3,34.2,30.06,SSW,202,2.5,2.5,70,0.00,,,0.00,0.00,VWS V14.01,2013-01-21 13:35:00,
2013-01-21 05:40:00,43.5,34.8,30.06,South,180,2.0,2.7,71,0.00,,,0.00,0.00,VWS V14.01,2013-01-21 13:40:00,
2013-01-21 05:45:00,43.5,35.5,30.06,SW,225,0.0,2.9,73,0.00,,,0.00,0.00,VWS V14.01,2013-01-21 13:45:00,
2013-01-21 05:50:00,43.3,35.3,30.06,WSW,248,0.0,3.4,73,0.00,,,0.00,0.00,VWS V14.01,2013-01-21 13:50:00,
2013-01-21 05:55:00,43.5,35.5,30.06,SSW,202,2.5,3.4,73,0.00,,,0.00,0.00,VWS V14.01,2013-01-21 13:55:00,
2013-01-21 06:00:00,44.2,38.2,30.06,SSW,202,2.0,3.1,79,0.00,,,0.00,0.00,VWS V14.01,2013-01-21 14:00:00,
2013-01-21 06:01:00,43.9,36.1,30.06,SSW,202,2.2,2.9,74,0.00,,,0.00,0.00,VWS V14.01,2013-01-21 14:01:00,
2013-01-21 06:06:00,43.9,36.1,30.03,SSW,202,4.0,4.0,74,0.00,,,0.00,0.00,VWS V14.01,2013-01-21 14:06:00,
2013-01-21 06:11:00,44.1,36.3,30.03,South,180,3.8,4.0,74,0.00,,,0.00,0.00,VWS V14.01,2013-01-21 14:11:00,
2013-01-21 06:15:00,45.5,38.7,30.06,WSW,248,2.0,4.3,77,0.00,,,0.00,0.00,VWS V14.01,2013-01-21 14:15:00,
2013-01-21 06:16:00,44.2,36.5,30.03,SSW,202,0.0,0.0,74,0.00,,,0.00,0.00,VWS V14.01,2013-01-21 14:16:00,
2013-01-21 06:21:00,44.1,36.3,30.03,SSW,202,2.0,2.7,74,0.00,,,0.00,0.00,VWS V14.01,2013-01-21 14:21:00,
2013-01-21 06:26:00,44.1,36.3,30.03,SSW,202,0.0,3.1,74,0.00,,,0.00,0.00,VWS V14.01,2013-01-21 14:26:00,
2013-01-21 06:30:00,45.7,38.6,30.09,SSW,202,3.8,4.9,76,0.00,,,0.00,0.00,VWS V14.01,2013-01-21 14:30:00,
2013-01-21 06:31:00,43.7,36.3,30.03,SSW,202,1.3,1.6,75,0.00,,,0.00,0.00,VWS V14.01,2013-01-21 14:31:00,
2013-01-21 06:36:00,43.7,36.3,30.06,SSW,202,0.0,1.6,75,0.00,,,0.00,0.00,VWS V14.01,2013-01-21 14:36:00,
2013-01-21 06:41:00,43.7,36.3,30.06,SW,225,0.0,2.2,75,0.00,,,0.00,0.00,VWS V14.01,2013-01-21 14:41:00,
2013-01-21 06:45:00,46.4,38.2,30.09,South,180,2.2,4.3,73,0.00,,,0.00,0.00,VWS V14.01,2013-01-21 14:45:00,
2013-01-21 06:46:00,43.7,36.6,30.06,WSW,248,0.0,2.5,76,0.00,,,0.00,0.00,VWS V14.01,2013-01-21 14:46:00,
2013-01-21 06:51:00,43.5,36.5,30.06,SSW,202,1.3,2.5,76,0.00,,,0.00,0.00,VWS V14.01,2013-01-21 14:51:00,
2013-01-21 06:56:00,43.9,37.5,30.06,SW,225,2.7,2.9,78,0.00,,,0.00,0.00,VWS V14.01,2013-01-21 14:56:00,
2013-01-21 07:00:00,46.4,38.2,30.09,SSW,202,2.5,4.0,73,0.00,,,0.00,0.00,VWS V14.01,2013-01-21 15:00:00,
2013-01-21 07:01:00,44.4,38.3,30.06,SSW,202,2.5,3.4,79,0.00,,,0.00,0.00,VWS V14.01,2013-01-21 15:01:00,
2013-01-21 07:06:00,44.8,38.3,30.06,SW,225,0.0,3.6,78,0.00,,,0.00,0.00,VWS V14.01,2013-01-21 15:06:00,
2013-01-21 07:11:00,44.8,38.3,30.06,SSW,202,2.5,3.8,78,0.00,,,0.00,0.00,VWS V14.01,2013-01-21 15:11:00,
2013-01-21 07:15:00,46.6,38.4,30.06,SSW,202,2.5,4.0,73,0.00,,,0.00,0.00,VWS V14.01,2013-01-21 15:15:00,
2013-01-21 07:16:00,45.7,38.9,30.06,SSW,202,2.7,3.1,77,0.00,,,0.00,0.00,VWS V14.01,2013-01-21 15:16:00,
2013-01-21 07:21:00,45.0,37.9,30.09,SSW,202,2.5,3.6,76,0.00,,,0.00,0.00,VWS V14.01,2013-01-21 15:21:00,
2013-01-21 07:26:00,45.5,38.4,30.09,SSW,202,3.4,4.0,76,0.00,,,0.00,0.00,VWS V14.01,2013-01-21 15:26:00,
2013-01-21 07:30:00,46.9,38.4,30.06,South,180,2.0,4.3,72,0.00,,,0.00,0.00,VWS V14.01,2013-01-21 15:30:00,
2013-01-21 07:31:00,46.0,38.9,30.09,SSW,202,2.7,4.3,76,0.00,,,0.00,0.00,VWS V14.01,2013-01-21 15:31:00,
2013-01-21 07:36:00,46.4,38.6,30.09,WSW,248,1.1,4.3,74,0.00,,,0.00,0.00,VWS V14.01,2013-01-21 15:36:00,
2013-01-21 07:41:00,46.0,38.2,30.09,South,180,1.3,4.3,74,0.00,,,0.00,0.00,VWS V14.01,2013-01-21 15:41:00,
2013-01-21 07:45:00,46.6,38.8,30.09,South,180,0.0,3.1,74,0.00,,,0.00,0.00,VWS V14.01,2013-01-21 15:45:00,
2013-01-21 07:46:00,46.4,38.2,30.09,South,180,3.8,3.8,73,0.00,,,0.00,0.00,VWS V14.01,2013-01-21 15:46:00,
2013-01-21 07:51:00,46.2,38.4,30.09,SSW,202,2.5,3.8,74,0.00,,,0.00,0.00,VWS V14.01,2013-01-21 15:51:00,
2013-01-21 07:56:00,46.6,38.4,30.09,South,180,3.8,4.0,73,0.00,,,0.00,0.00,VWS V14.01,2013-01-21 15:56:00,
2013-01-21 08:00:00,47.1,39.3,30.06,SW,225,2.5,3.1,74,0.00,,,0.00,0.00,VWS V14.01,2013-01-21 16:00:00,
2013-01-21 08:01:00,46.4,38.2,30.09,SSW,202,2.2,2.5,73,0.00,,,0.00,0.00,VWS V14.01,2013-01-21 16:01:00,
2013-01-21 08:06:00,46.6,38.4,30.06,SSW,202,0.0,3.8,73,0.00,,,0.00,0.00,VWS V14.01,2013-01-21 16:06:00,
2013-01-21 08:11:00,46.4,38.2,30.06,SSW,202,3.4,4.0,73,0.00,,,0.00,0.00,VWS V14.01,2013-01-21 16:11:00,
2013-01-21 08:15:00,47.7,39.8,30.09,SSW,202,2.7,3.4,74,0.00,,,0.00,0.00,VWS V14.01,2013-01-21 16:15:00,
2013-01-21 08:16:00,46.6,38.4,30.06,South,180,4.0,4.0,73,0.00,,,0.00,0.00,VWS V14.01,2013-01-21 16:16:00,
2013-01-21 08:21:00,47.1,38.6,30.06,South,180,1.3,4.3,72,0.00,,,0.00,0.00,VWS V14.01,2013-01-21 16:21:00,
2013-01-21 08:26:00,47.1,38.6,30.06,SSW,202,2.2,4.3,72,0.00,,,0.00,0.00,VWS V14.01,2013-01-21 16:26:00,
2013-01-21 08:30:00,48.0,39.4,30.09,South,180,2.9,3.1,72,0.00,,,0.00,0.00,VWS V14.01,2013-01-21 16:30:00,
2013-01-21 08:31:00,46.9,38.4,30.06,SSW,202,3.1,3.1,72,0.00,,,0.00,0.00,VWS V14.01,2013-01-21 16:31:00,
2013-01-21 08:36:00,46.8,38.6,30.09,SSW,202,2.0,3.1,73,0.00,,,0.00,0.00,VWS V14.01,2013-01-21 16:36:00,
2013-01-21 08:41:00,46.6,38.4,30.09,South,180,0.0,3.1,73,0.00,,,0.00,0.00,VWS V14.01,2013-01-21 16:41:00,
2013-01-21 08:45:00,48.7,39.4,30.09,South,180,1.6,2.9,70,0.00,,,0.00,0.00,VWS V14.01,2013-01-21 16:45:00,
2013-01-21 08:46:00,46.8,38.9,30.09,SSW,202,0.0,0.0,74,0.00,,,0.00,0.00,VWS V14.01,2013-01-21 16:46:00,
2013-01-21 08:51:00,46.8,38.9,30.06,SSW,202,1.3,2.9,74,0.00,,,0.00,0.00,VWS V14.01,2013-01-21 16:51:00,
2013-01-21 08:56:00,46.9,39.1,30.06,SSW,202,0.0,3.1,74,0.00,,,0.00,0.00,VWS V14.01,2013-01-21 16:56:00,
2013-01-21 09:00:00,51.8,40.0,30.09,SSE,158,2.5,3.1,64,0.00,,,0.00,0.00,VWS V14.01,2013-01-21 17:00:00,
2013-01-21 09:01:00,47.3,39.5,30.06,SSW,202,0.0,2.5,74,0.00,,,0.00,0.00,VWS V14.01,2013-01-21 17:01:00,
2013-01-21 09:06:00,47.5,39.6,30.09,SSW,202,1.6,2.7,74,0.00,,,0.00,0.00,VWS V14.01,2013-01-21 17:06:00,
2013-01-21 09:11:00,47.5,39.6,30.09,SSW,202,0.0,2.7,74,0.00,,,0.00,0.00,VWS V14.01,2013-01-21 17:11:00,
2013-01-21 09:15:00,54.7,40.7,30.09,South,180,0.0,3.6,59,0.00,,,0.00,0.00,VWS V14.01,2013-01-21 17:15:00,
2013-01-21 09:16:00,47.7,39.4,30.09,SSW,202,0.0,3.1,73,0.00,,,0.00,0.00,VWS V14.01,2013-01-21 17:16:00,
2013-01-21 09:21:00,47.8,39.6,30.09,SSW,202,0.0,3.1,73,0.00,,,0.00,0.00,VWS V14.01,2013-01-21 17:21:00,
2013-01-21 09:26:00,48.0,39.4,30.09,South,180,0.0,3.1,72,0.00,,,0.00,0.00,VWS V14.01,2013-01-21 17:26:00,
2013-01-21 09:30:00,56.1,38.8,30.09,East,90,1.6,3.8,52,0.00,,,0.00,0.00,VWS V14.01,2013-01-21 17:30:00,
2013-01-21 09:32:00,48.2,39.6,30.09,SSE,158,1.1,2.9,72,0.00,,,0.00,0.00,VWS V14.01,2013-01-21 17:32:00,
2013-01-21 09:37:00,48.4,39.4,30.09,SSE,158,0.0,2.9,71,0.00,,,0.00,0.00,VWS V14.01,2013-01-21 17:37:00,
2013-01-21 09:42:00,48.7,39.4,30.09,South,180,1.3,2.9,70,0.00,,,0.00,0.00,VWS V14.01,2013-01-21 17:42:00,
2013-01-21 09:45:00,56.7,38.2,30.09,NNE,22,0.0,3.8,50,0.00,,,0.00,0.00,VWS V14.01,2013-01-21 17:45:00,
2013-01-21 09:47:00,49.5,39.7,30.09,SE,135,2.7,2.7,69,0.00,,,0.00,0.00,VWS V14.01,2013-01-21 17:47:00,
2013-01-21 09:52:00,50.9,40.3,30.09,South,180,3.1,3.1,67,0.00,,,0.00,0.00,VWS V14.01,2013-01-21 17:52:00,
2013-01-21 09:57:00,51.8,40.0,30.09,South,180,2.5,3.1,64,0.00,,,0.00,0.00,VWS V14.01,2013-01-21 17:57:00,
2013-01-21 10:00:00,57.9,38.9,30.09,East,90,3.1,4.3,49,0.00,,,0.00,0.00,VWS V14.01,2013-01-21 18:00:00,
2013-01-21 10:02:00,52.2,40.4,30.09,SSE,158,0.0,2.7,64,0.00,,,0.00,0.00,VWS V14.01,2013-01-21 18:02:00,
2013-01-21 10:07:00,53.1,41.2,30.09,East,90,0.0,3.6,64,0.00,,,0.00,0.00,VWS V14.01,2013-01-21 18:07:00,
2013-01-21 10:12:00,54.5,40.9,30.09,South,180,0.0,3.6,60,0.00,,,0.00,0.00,VWS V14.01,2013-01-21 18:12:00,
2013-01-21 10:15:00,58.3,38.7,30.09,NE,45,4.0,4.3,48,0.00,,,0.00,0.00,VWS V14.01,2013-01-21 18:15:00,
2013-01-21 10:17:00,55.0,40.1,30.09,East,90,1.3,2.7,57,0.00,,,0.00,0.00,VWS V14.01,2013-01-21 18:17:00,
2013-01-21 10:22:00,55.2,39.3,30.09,ENE,68,2.7,2.9,55,0.00,,,0.00,0.00,VWS V14.01,2013-01-21 18:22:00,
2013-01-21 10:27:00,55.9,39.5,30.09,SSE,158,2.2,3.8,54,0.00,,,0.00,0.00,VWS V14.01,2013-01-21 18:27:00,
2013-01-21 10:30:00,57.9,38.4,30.09,ENE,68,2.5,5.4,48,0.00,,,0.00,0.00,VWS V14.01,2013-01-21 18:30:00,
2013-01-21 10:32:00,56.3,38.4,30.09,East,90,0.0,2.9,51,0.00,,,0.00,0.00,VWS V14.01,2013-01-21 18:32:00,
2013-01-21 10:37:00,56.7,39.2,30.09,ENE,68,3.1,3.6,52,0.00,,,0.00,0.00,VWS V14.01,2013-01-21 18:37:00,
2013-01-21 10:42:00,57.0,38.6,30.09,East,90,2.0,3.6,50,0.00,,,0.00,0.00,VWS V14.01,2013-01-21 18:42:00,
2013-01-21 10:45:00,59.4,39.2,30.09,East,90,3.1,5.6,47,0.00,,,0.00,0.00,VWS V14.01,2013-01-21 18:45:00,
2013-01-21 10:47:00,56.8,38.4,30.09,East,90,0.0,2.7,50,0.00,,,0.00,0.00,VWS V14.01,2013-01-21 18:47:00,
2013-01-21 10:52:00,57.4,38.9,30.09,ESE,112,0.0,2.9,50,0.00,,,0.00,0.00,VWS V14.01,2013-01-21 18:52:00,
2013-01-21 10:57:00,57.2,38.2,30.09,SSE,158,0.0,4.3,49,0.00,,,0.00,0.00,VWS V14.01,2013-01-21 18:57:00,
2013-01-21 11:00:00,59.7,38.9,30.06,ENE,68,2.9,5.4,46,0.00,,,0.00,0.00,VWS V14.01,2013-01-21 19:00:00,
2013-01-21 11:02:00,57.7,38.7,30.09,East,90,4.0,4.0,49,0.00,,,0.00,0.00,VWS V14.01,2013-01-21 19:02:00,
2013-01-21 11:07:00,57.6,38.0,30.09,NE,45,2.0,4.3,48,0.00,,,0.00,0.00,VWS V14.01,2013-01-21 19:07:00,
2013-01-21 11:12:00,58.1,38.5,30.09,North,0,1.6,4.3,48,0.00,,,0.00,0.00,VWS V14.01,2013-01-21 19:12:00,
2013-01-21 11:15:00,60.8,39.3,30.06,ESE,112,2.7,6.3,45,0.00,,,0.00,0.00,VWS V14.01,2013-01-21 19:15:00,
2013-01-21 11:17:00,58.1,38.5,30.09,ENE,68,0.9,5.4,48,0.00,,,0.00,0.00,VWS V14.01,2013-01-21 19:17:00,
2013-01-21 11:22:00,58.3,38.7,30.09,NNE,22,2.9,5.4,48,0.00,,,0.00,0.00,VWS V14.01,2013-01-21 19:22:00,
2013-01-21 11:27:00,58.1,38.5,30.09,East,90,2.7,5.4,48,0.00,,,0.00,0.00,VWS V14.01,2013-01-21 19:27:00,
2013-01-21 11:30:00,61.0,39.5,30.06,ENE,68,2.0,6.3,45,0.00,,,0.00,0.00,VWS V14.01,2013-01-21 19:30:00,
2013-01-21 11:32:00,58.5,38.3,30.09,ENE,68,3.6,5.6,47,0.00,,,0.00,0.00,VWS V14.01,2013-01-21 19:32:00,
2013-01-21 11:37:00,59.2,39.0,30.09,NE,45,2.9,5.6,47,0.00,,,0.00,0.00,VWS V14.01,2013-01-21 19:37:00,
2013-01-21 11:42:00,59.2,39.0,30.09,North,0,3.4,5.6,47,0.00,,,0.00,0.00,VWS V14.01,2013-01-21 19:42:00,
2013-01-21 11:45:00,61.5,39.4,30.06,NNE,22,2.9,5.4,44,0.00,,,0.00,0.00,VWS V14.01,2013-01-21 19:45:00,
2013-01-21 11:47:00,59.2,38.4,30.09,NNE,22,0.0,4.9,46,0.00,,,0.00,0.00,VWS V14.01,2013-01-21 19:47:00,
2013-01-21 11:52:00,59.4,38.6,30.06,ENE,68,0.0,5.4,46,0.00,,,0.00,0.00,VWS V14.01,2013-01-21 19:52:00,
2013-01-21 11:57:00,59.7,38.9,30.06,ENE,68,3.6,5.4,46,0.00,,,0.00,0.00,VWS V14.01,2013-01-21 19:57:00,
2013-01-21 12:00:00,61.5,40.0,30.06,East,90,1.1,6.3,45,0.00,,,0.00,0.00,VWS V14.01,2013-01-21 20:00:00,
2013-01-21 12:02:00,59.4,38.6,30.06,NE,45,0.0,6.3,46,0.00,,,0.00,0.00,VWS V14.01,2013-01-21 20:02:00,
2013-01-21 12:07:00,60.3,39.4,30.06,NE,45,4.0,6.3,46,0.00,,,0.00,0.00,VWS V14.01,2013-01-21 20:07:00,
2013-01-21 12:12:00,60.8,39.3,30.06,NE,45,2.7,6.3,45,0.00,,,0.00,0.00,VWS V14.01,2013-01-21 20:12:00,
2013-01-21 12:15:00,62.1,39.3,30.03,NE,45,2.9,6.3,43,0.00,,,0.00,0.00,VWS V14.01,2013-01-21 20:15:00,
2013-01-21 12:17:00,61.2,39.7,30.06,NNE,22,3.4,4.0,45,0.00,,,0.00,0.00,VWS V14.01,2013-01-21 20:17:00,
2013-01-21 12:23:00,60.8,39.3,30.06,NNW,338,0.0,6.3,45,0.00,,,0.00,0.00,VWS V14.01,2013-01-21 20:23:00,
2013-01-21 12:28:00,61.2,39.1,30.06,East,90,2.5,6.3,44,0.00,,,0.00,0.00,VWS V14.01,2013-01-21 20:28:00,
2013-01-21 12:30:00,61.9,38.6,30.03,ENE,68,2.2,6.3,42,0.00,,,0.00,0.00,VWS V14.01,2013-01-21 20:30:00,
2013-01-21 12:33:00,61.2,39.1,30.06,East,90,2.9,4.7,44,0.00,,,0.00,0.00,VWS V14.01,2013-01-21 20:33:00,
2013-01-21 12:38:00,61.0,38.9,30.06,East,90,3.6,5.4,44,0.00,,,0.00,0.00,VWS V14.01,2013-01-21 20:38:00,
2013-01-21 12:43:00,61.3,39.3,30.06,ENE,68,2.9,5.4,44,0.00,,,0.00,0.00,VWS V14.01,2013-01-21 20:43:00,
2013-01-21 12:45:00,61.9,39.2,30.03,East,90,4.7,6.5,43,0.00,,,0.00,0.00,VWS V14.01,2013-01-21 20:45:00,
2013-01-21 12:48:00,61.7,39.0,30.06,ENE,68,2.9,6.3,43,0.00,,,0.00,0.00,VWS V14.01,2013-01-21 20:48:00,
2013-01-21 12:53:00,61.3,39.3,30.06,East,90,2.7,6.3,44,0.00,,,0.00,0.00,VWS V14.01,2013-01-21 20:53:00,
2013-01-21 12:58:00,61.2,39.1,30.06,NNW,338,1.3,6.3,44,0.00,,,0.00,0.00,VWS V14.01,2013-01-21 20:58:00,
2013-01-21 13:00:00,61.7,39.0,30.03,NNE,22,4.9,7.2,43,0.00,,,0.00,0.00,VWS V14.01,2013-01-21 21:00:00,
2013-01-21 13:03:00,61.9,39.8,30.06,NNE,22,0.0,3.6,44,0.00,,,0.00,0.00,VWS V14.01,2013-01-21 21:03:00,
2013-01-21 13:08:00,61.9,39.2,30.03,NE,45,4.0,5.8,43,0.00,,,0.00,0.00,VWS V14.01,2013-01-21 21:08:00,
2013-01-21 13:13:00,61.9,39.2,30.03,East,90,2.2,6.3,43,0.00,,,0.00,0.00,VWS V14.01,2013-01-21 21:13:00,
2013-01-21 13:15:00,61.9,39.8,30.03,SE,135,2.5,4.9,44,0.00,,,0.00,0.00,VWS V14.01,2013-01-21 21:15:00,
2013-01-21 13:18:00,62.1,39.3,30.03,NE,45,1.6,5.8,43,0.00,,,0.00,0.00,VWS V14.01,2013-01-21 21:18:00,
2013-01-21 13:23:00,62.6,39.2,30.03,NNE,22,4.3,5.8,42,0.00,,,0.00,0.00,VWS V14.01,2013-01-21 21:23:00,
2013-01-21 13:28:00,61.9,38.6,30.03,East,90,4.9,6.3,42,0.00,,,0.00,0.00,VWS V14.01,2013-01-21 21:28:00,
2013-01-21 13:30:00,62.1,39.9,30.03,East,90,0.0,5.4,44,0.00,,,0.00,0.00,VWS V14.01,2013-01-21 21:30:00,
2013-01-21 13:33:00,61.7,38.4,30.03,East,90,3.8,6.5,42,0.00,,,0.00,0.00,VWS V14.01,2013-01-21 21:33:00,
2013-01-21 13:38:00,62.2,38.9,30.03,NNW,338,3.4,6.5,42,0.00,,,0.00,0.00,VWS V14.01,2013-01-21 21:38:00,
2013-01-21 13:43:00,62.1,39.3,30.03,ENE,68,2.5,6.5,43,0.00,,,0.00,0.00,VWS V14.01,2013-01-21 21:43:00,
2013-01-21 13:45:00,62.1,41.1,30.03,ESE,112,0.0,4.7,46,0.00,,,0.00,0.00,VWS V14.01,2013-01-21 21:45:00,
2013-01-21 13:48:00,61.7,39.0,30.03,East,90,2.9,4.9,43,0.00,,,0.00,0.00,VWS V14.01,2013-01-21 21:48:00,
2013-01-21 13:53:00,61.7,39.0,30.03,NE,45,7.2,7.2,43,0.00,,,0.00,0.00,VWS V14.01,2013-01-21 21:53:00,
2013-01-21 13:58:00,61.5,38.8,30.03,ENE,68,1.3,7.2,43,0.00,,,0.00,0.00,VWS V14.01,2013-01-21 21:58:00,
2013-01-21 14:00:00,59.9,40.2,30.03,SSW,202,1.1,4.3,48,0.00,,,0.00,0.00,VWS V14.01,2013-01-21 22:00:00,
2013-01-21 14:03:00,61.9,39.2,30.03,NE,45,2.7,4.9,43,0.00,,,0.00,0.00,VWS V14.01,2013-01-21 22:03:00,
2013-01-21 14:08:00,61.9,39.8,30.03,NNW,338,0.0,4.9,44,0.00,,,0.00,0.00,VWS V14.01,2013-01-21 22:08:00,
2013-01-21 14:13:00,61.9,39.8,30.03,East,90,4.7,4.9,44,0.00,,,0.00,0.00,VWS V14.01,2013-01-21 22:13:00,
2013-01-21 14:15:00,57.0,40.1,30.03,SSW,202,0.0,4.3,53,0.00,,,0.00,0.00,VWS V14.01,2013-01-21 22:15:00,
2013-01-21 14:18:00,62.8,40.6,30.03,East,90,0.0,3.1,44,0.00,,,0.00,0.00,VWS V14.01,2013-01-21 22:18:00,
2013-01-21 14:23:00,62.1,39.9,30.03,NNW,338,1.1,3.8,44,0.00,,,0.00,0.00,VWS V14.01,2013-01-21 22:23:00,
2013-01-21 14:28:00,62.1,39.9,30.03,ENE,68,1.3,5.4,44,0.00,,,0.00,0.00,VWS V14.01,2013-01-21 22:28:00,
2013-01-21 14:30:00,56.5,41.0,30.03,NNW,338,0.0,3.6,56,0.00,,,0.00,0.00,VWS V14.01,2013-01-21 22:30:00,
2013-01-21 14:33:00,62.2,40.1,30.03,NNE,22,0.9,4.3,44,0.00,,,0.00,0.00,VWS V14.01,2013-01-21 22:33:00,
2013-01-21 14:39:00,62.2,40.7,30.03,NW,315,4.3,4.3,45,0.00,,,0.00,0.00,VWS V14.01,2013-01-21 22:39:00,
2013-01-21 14:44:00,61.9,40.9,30.03,WNW,292,0.0,4.7,46,0.00,,,0.00,0.00,VWS V14.01,2013-01-21 22:44:00,
2013-01-21 14:45:00,56.5,40.5,30.03,South,180,0.0,2.5,55,0.00,,,0.00,0.00,VWS V14.01,2013-01-21 22:45:00,
2013-01-21 14:49:00,62.2,41.2,30.03,SSW,202,0.0,0.9,46,0.00,,,0.00,0.00,VWS V14.01,2013-01-21 22:49:00,
2013-01-21 14:54:00,61.5,41.1,30.03,SW,225,0.0,4.3,47,0.00,,,0.00,0.00,VWS V14.01,2013-01-21 22:54:00,
2013-01-21 14:59:00,60.1,40.3,30.03,SSW,202,0.0,4.3,48,0.00,,,0.00,0.00,VWS V14.01,2013-01-21 22:59:00,
2013-01-21 15:00:00,56.1,40.7,30.03,SSW,202,0.0,0.9,56,0.00,,,0.00,0.00,VWS V14.01,2013-01-21 23:00:00,
2013-01-21 15:04:00,58.6,39.5,30.03,SSW,202,2.5,4.3,49,0.00,,,0.00,0.00,VWS V14.01,2013-01-21 23:04:00,
2013-01-21 15:09:00,57.9,39.9,30.03,SSW,202,0.0,4.3,51,0.00,,,0.00,0.00,VWS V14.01,2013-01-21 23:09:00,
2013-01-21 15:14:00,57.2,39.8,30.03,SSW,202,0.0,4.3,52,0.00,,,0.00,0.00,VWS V14.01,2013-01-21 23:14:00,
2013-01-21 15:15:00,55.9,40.9,30.00,SSE,158,0.0,0.0,57,0.00,,,0.00,0.00,VWS V14.01,2013-01-21 23:15:00,
2013-01-21 15:19:00,56.7,40.2,30.03,SSW,202,0.0,0.0,54,0.00,,,0.00,0.00,VWS V14.01,2013-01-21 23:19:00,
2013-01-21 15:24:00,56.7,40.7,30.03,SSE,158,0.0,0.0,55,0.00,,,0.00,0.00,VWS V14.01,2013-01-21 23:24:00,
2013-01-21 15:29:00,56.5,41.0,30.03,WNW,292,2.2,2.2,56,0.00,,,0.00,0.00,VWS V14.01,2013-01-21 23:29:00,
2013-01-21 15:30:00,55.0,41.0,30.00,SE,135,0.0,0.0,59,0.00,,,0.00,0.00,VWS V14.01,2013-01-21 23:30:00,
2013-01-21 15:34:00,57.2,40.7,30.03,North,0,0.0,2.5,54,0.00,,,0.00,0.00,VWS V14.01,2013-01-21 23:34:00,
2013-01-21 15:39:00,56.8,40.9,30.03,South,180,0.0,2.5,55,0.00,,,0.00,0.00,VWS V14.01,2013-01-21 23:39:00,
2013-01-21 15:44:00,56.7,40.7,30.03,South,180,0.0,2.5,55,0.00,,,0.00,0.00,VWS V14.01,2013-01-21 23:44:00,
2013-01-21 15:45:00,55.0,40.1,30.00,SSE,158,1.3,3.8,57,0.00,,,0.00,0.00,VWS V14.01,2013-01-21 23:45:00,
2013-01-21 15:49:00,56.1,41.1,30.03,South,180,0.9,0.9,57,0.00,,,0.00,0.00,VWS V14.01,2013-01-21 23:49:00,
2013-01-21 15:54:00,55.9,40.9,30.03,South,180,0.0,0.9,57,0.00,,,0.00,0.00,VWS V14.01,2013-01-21 23:54:00,
2013-01-21 15:59:00,55.9,40.5,30.03,SSE,158,0.0,0.9,56,0.00,,,0.00,0.00,VWS V14.01,2013-01-21 23:59:00,
2013-01-21 16:00:00,54.9,39.5,30.00,WSW,248,0.0,4.9,56,0.00,,,0.00,0.00,VWS V14.01,2013-01-22 00:00:00,
2013-01-21 16:04:00,56.3,41.3,30.03,SSE,158,0.0,0.0,57,0.00,,,0.00,0.00,VWS V14.01,2013-01-22 00:04:00,
2013-01-21 16:09:00,56.5,41.0,30.00,SSE,158,0.0,0.0,56,0.00,,,0.00,0.00,VWS V14.01,2013-01-22 00:09:00,
2013-01-21 16:14:00,55.9,40.9,30.00,SSE,158,0.0,0.0,57,0.00,,,0.00,0.00,VWS V14.01,2013-01-22 00:14:00,
2013-01-21 16:15:00,53.4,39.0,30.00,South,180,2.7,3.1,58,0.00,,,0.00,0.00,VWS V14.01,2013-01-22 00:15:00,
2013-01-21 16:19:00,55.9,40.9,30.00,SSE,158,0.0,0.0,57,0.00,,,0.00,0.00,VWS V14.01,2013-01-22 00:19:00,
2013-01-21 16:24:00,55.4,40.9,30.00,SSE,158,0.0,0.0,58,0.00,,,0.00,0.00,VWS V14.01,2013-01-22 00:24:00,
2013-01-21 16:29:00,55.0,41.0,30.00,SSW,202,0.0,0.0,59,0.00,,,0.00,0.00,VWS V14.01,2013-01-22 00:29:00,
2013-01-21 16:30:00,53.2,38.4,30.00,West,270,1.3,3.4,57,0.00,,,0.00,0.00,VWS V14.01,2013-01-22 00:30:00,
2013-01-21 16:34:00,55.2,41.2,30.00,SSE,158,0.0,0.0,59,0.00,,,0.00,0.00,VWS V14.01,2013-01-22 00:34:00,
2013-01-21 16:39:00,54.9,40.8,30.00,SSE,158,2.2,2.2,59,0.00,,,0.00,0.00,VWS V14.01,2013-01-22 00:39:00,
2013-01-21 16:44:00,54.9,40.4,30.00,SSE,158,0.0,3.8,58,0.00,,,0.00,0.00,VWS V14.01,2013-01-22 00:44:00,
2013-01-21 16:45:00,52.9,38.1,30.03,SW,225,0.0,3.6,57,0.00,,,0.00,0.00,VWS V14.01,2013-01-22 00:45:00,
2013-01-21 16:49:00,55.2,40.3,30.00,SSW,202,0.0,1.3,57,0.00,,,0.00,0.00,VWS V14.01,2013-01-22 00:49:00,
2013-01-21 16:54:00,54.9,39.9,30.00,SSE,158,0.0,4.9,57,0.00,,,0.00,0.00,VWS V14.01,2013-01-22 00:54:00,
2013-01-21 16:59:00,54.9,39.5,30.00,SW,225,0.0,4.9,56,0.00,,,0.00,0.00,VWS V14.01,2013-01-22 00:59:00,
2013-01-21 17:00:00,53.1,37.8,30.06,WNW,292,0.0,2.5,56,0.00,,,0.00,0.00,VWS V14.01,2013-01-22 01:00:00,
2013-01-21 17:04:00,54.5,39.6,30.00,SSW,202,0.0,0.0,57,0.00,,,0.00,0.00,VWS V14.01,2013-01-22 01:04:00,
2013-01-21 17:09:00,53.8,39.4,30.00,WSW,248,0.0,3.1,58,0.00,,,0.00,0.00,VWS V14.01,2013-01-22 01:09:00,
2013-01-21 17:14:00,53.4,39.0,30.00,SSW,202,2.5,3.1,58,0.00,,,0.00,0.00,VWS V14.01,2013-01-22 01:14:00,
2013-01-21 17:15:00,52.3,37.1,30.09,South,180,0.0,3.1,56,0.00,,,0.00,0.00,VWS V14.01,2013-01-22 01:15:00,
2013-01-21 17:19:00,53.8,38.9,30.00,WNW,292,0.0,2.9,57,0.00,,,0.00,0.00,VWS V14.01,2013-01-22 01:19:00,
2013-01-21 17:24:00,53.6,38.8,30.00,SSW,202,0.0,2.9,57,0.00,,,0.00,0.00,VWS V14.01,2013-01-22 01:24:00,
2013-01-21 17:29:00,53.2,38.4,30.00,SSW,202,2.7,3.4,57,0.00,,,0.00,0.00,VWS V14.01,2013-01-22 01:29:00,
2013-01-21 17:30:00,52.5,37.7,30.09,SSW,202,2.5,4.0,57,0.00,,,0.00,0.00,VWS V14.01,2013-01-22 01:30:00,
2013-01-21 17:34:00,52.9,38.5,30.00,SSW,202,0.0,2.7,58,0.00,,,0.00,0.00,VWS V14.01,2013-01-22 01:34:00,
2013-01-21 17:39:00,53.1,38.2,30.03,NNW,338,1.6,3.6,57,0.00,,,0.00,0.00,VWS V14.01,2013-01-22 01:39:00,
2013-01-21 17:44:00,52.9,38.1,30.03,SW,225,0.0,3.6,57,0.00,,,0.00,0.00,VWS V14.01,2013-01-22 01:44:00,
2013-01-21 17:45:00,52.3,37.6,30.09,SW,225,0.0,3.4,57,0.00,,,0.00,0.00,VWS V14.01,2013-01-22 01:45:00,
2013-01-21 17:49:00,52.9,38.1,30.06,West,270,0.0,0.0,57,0.00,,,0.00,0.00,VWS V14.01,2013-01-22 01:49:00,
2013-01-21 17:54:00,52.7,37.9,30.06,SSW,202,0.0,2.5,57,0.00,,,0.00,0.00,VWS V14.01,2013-01-22 01:54:00,
2013-01-21 17:59:00,52.9,37.6,30.06,WNW,292,0.0,2.5,56,0.00,,,0.00,0.00,VWS V14.01,2013-01-22 01:59:00,
2013-01-21 18:00:00,51.4,37.6,30.09,SSW,202,0.9,1.3,59,0.00,,,0.00,0.00,VWS V14.01,2013-01-22 02:00:00,
2013-01-21 18:04:00,52.9,37.6,30.09,SSW,202,0.0,0.0,56,0.00,,,0.00,0.00,VWS V14.01,2013-01-22 02:04:00,
2013-01-21 18:09:00,52.5,37.3,30.09,South,180,1.6,3.1,56,0.00,,,0.00,0.00,VWS V14.01,2013-01-22 02:09:00,
2013-01-21 18:14:00,52.3,37.1,30.09,South,180,0.0,3.1,56,0.00,,,0.00,0.00,VWS V14.01,2013-01-22 02:14:00,
2013-01-21 18:15:00,50.7,37.8,30.09,SSW,202,2.5,2.9,61,0.00,,,0.00,0.00,VWS V14.01,2013-01-22 02:15:00,
2013-01-21 18:19:00,52.0,37.2,30.09,SW,225,0.0,1.6,57,0.00,,,0.00,0.00,VWS V14.01,2013-01-22 02:19:00,
2013-01-21 18:24:00,52.3,37.6,30.09,WNW,292,0.0,3.1,57,0.00,,,0.00,0.00,VWS V14.01,2013-01-22 02:24:00,
2013-01-21 18:29:00,52.5,37.7,30.09,SW,225,1.1,4.0,57,0.00,,,0.00,0.00,VWS V14.01,2013-01-22 02:29:00,
2013-01-21 18:30:00,50.4,38.3,30.12,SSW,202,0.0,2.9,63,0.00,,,0.00,0.00,VWS V14.01,2013-01-22 02:30:00,
2013-01-21 18:34:00,52.3,38.0,30.09,SSW,202,0.0,2.9,58,0.00,,,0.00,0.00,VWS V14.01,2013-01-22 02:34:00,
2013-01-21 18:39:00,52.3,37.6,30.09,WNW,292,0.0,2.9,57,0.00,,,0.00,0.00,VWS V14.01,2013-01-22 02:39:00,
2013-01-21 18:44:00,52.3,37.6,30.09,SW,225,0.0,3.4,57,0.00,,,0.00,0.00,VWS V14.01,2013-01-22 02:44:00,
2013-01-21 18:45:00,50.2,38.1,30.09,SW,225,2.9,3.4,63,0.00,,,0.00,0.00,VWS V14.01,2013-01-22 02:45:00,
2013-01-21 18:49:00,52.0,37.7,30.09,SSE,158,0.0,0.0,58,0.00,,,0.00,0.00,VWS V14.01,2013-01-22 02:49:00,
2013-01-21 18:54:00,51.4,37.2,30.09,South,180,0.0,0.0,58,0.00,,,0.00,0.00,VWS V14.01,2013-01-22 02:54:00,
2013-01-21 18:59:00,51.4,37.6,30.09,SSW,202,1.3,1.3,59,0.00,,,0.00,0.00,VWS V14.01,2013-01-22 02:59:00,
2013-01-21 19:00:00,50.2,38.5,30.12,SSW,202,0.0,2.9,64,0.00,,,0.00,0.00,VWS V14.01,2013-01-22 03:00:00,
2013-01-21 19:04:00,51.1,37.7,30.09,SSW,202,0.0,0.9,60,0.00,,,0.00,0.00,VWS V14.01,2013-01-22 03:04:00,
2013-01-21 19:09:00,50.9,38.0,30.09,SSW,202,0.0,2.9,61,0.00,,,0.00,0.00,VWS V14.01,2013-01-22 03:09:00,
2013-01-21 19:14:00,50.7,37.8,30.09,SSW,202,2.0,2.9,61,0.00,,,0.00,0.00,VWS V14.01,2013-01-22 03:14:00,
2013-01-21 19:15:00,50.4,38.3,30.09,SSW,202,2.2,3.1,63,0.00,,,0.00,0.00,VWS V14.01,2013-01-22 03:15:00,
2013-01-21 19:19:00,50.7,38.2,30.12,South,180,0.9,2.7,62,0.00,,,0.00,0.00,VWS V14.01,2013-01-22 03:19:00,
2013-01-21 19:25:00,50.7,38.2,30.12,SSW,202,0.0,2.9,62,0.00,,,0.00,0.00,VWS V14.01,2013-01-22 03:25:00,
2013-01-21 19:30:00,50.4,38.3,30.12,SSW,202,0.0,2.9,63,0.00,,,0.00,0.00,VWS V14.01,2013-01-22 03:30:00,
2013-01-21 19:35:00,50.2,38.1,30.09,SSW,202,0.0,0.0,63,0.00,,,0.00,0.00,VWS V14.01,2013-01-22 03:35:00,
2013-01-21 19:40:00,50.0,37.9,30.09,SSW,202,0.0,3.4,63,0.00,,,0.00,0.00,VWS V14.01,2013-01-22 03:40:00,
2013-01-21 19:45:00,50.2,38.1,30.09,SW,225,2.9,3.4,63,0.00,,,0.00,0.00,VWS V14.01,2013-01-22 03:45:00,
2013-01-21 19:50:00,50.2,38.5,30.12,SSW,202,0.0,2.9,64,0.00,,,0.00,0.00,VWS V14.01,2013-01-22 03:50:00,
2013-01-21 19:55:00,50.0,38.3,30.12,SW,225,0.0,2.9,64,0.00,,,0.00,0.00,VWS V14.01,2013-01-22 03:55:00,
2013-01-21 20:00:00,50.2,38.5,30.12,SSW,202,0.0,0.0,64,0.00,,,0.00,0.00,VWS V14.01,2013-01-22 04:00:00,
2013-01-21 20:05:00,50.0,38.3,30.09,WSW,248,0.0,0.0,64,0.00,,,0.00,0.00,VWS V14.01,2013-01-22 04:05:00,
2013-01-21 20:10:00,50.0,38.3,30.09,WNW,292,0.0,0.0,64,0.00,,,0.00,0.00,VWS V14.01,2013-01-22 04:10:00,
2013-01-21 20:15:00,50.4,38.3,30.09,SSW,202,2.2,3.1,63,0.00,,,0.00,0.00,VWS V14.01,2013-01-22 04:15:00,
2013-01-21 20:20:00,50.7,38.2,30.12,NW,315,2.0,3.6,62,0.00,,,0.00,0.00,VWS V14.01,2013-01-22 04:20:00,
2013-01-21 20:25:00,50.5,38.4,30.12,SSW,202,2.5,3.6,63,0.00,,,0.00,0.00,VWS V14.01,2013-01-22 04:25:00,
2013-01-21 20:30:00,50.7,38.6,30.12,SW,225,1.1,1.1,63,0.00,,,0.00,0.00,VWS V14.01,2013-01-22 04:30:00,
2013-01-21 20:35:00,50.5,38.4,30.12,SSW,202,2.5,3.6,63,0.00,,,0.00,0.00,VWS V14.01,2013-01-22 04:35:00,
2013-01-21 20:40:00,50.5,38.4,30.12,SSW,202,2.9,4.0,63,0.00,,,0.00,0.00,VWS V14.01,2013-01-22 04:40:00,
2013-01-21 20:45:00,50.9,38.8,30.12,SSW,202,3.1,3.1,63,0.00,,,0.00,0.00,VWS V14.01,2013-01-22 04:45:00,
2013-01-21 20:50:00,51.1,38.9,30.12,SSW,202,3.8,3.8,63,0.00,,,0.00,0.00,VWS V14.01,2013-01-22 04:50:00,
2013-01-21 20:55:00,51.1,38.5,30.12,SSW,202,2.7,4.3,62,0.00,,,0.00,0.00,VWS V14.01,2013-01-22 04:55:00,
2013-01-21 21:00:00,51.3,38.3,30.12,SSW,202,2.9,2.9,61,0.00,,,0.00,0.00,VWS V14.01,2013-01-22 05:00:00,
2013-01-21 21:01:00,51.4,38.5,30.12,SSW,202,3.8,3.8,61,0.00,,,0.00,0.00,VWS V14.01,2013-01-22 05:01:00,
2013-01-21 21:03:00,51.6,38.6,30.12,SSW,202,3.4,3.8,61,0.00,,,0.00,0.00,VWS V14.01,2013-01-22 05:03:00,
2013-01-21 21:07:00,51.1,38.5,30.12,SW,225,2.5,3.8,62,0.00,,,0.00,0.00,VWS V14.01,2013-01-22 05:07:00,
2013-01-21 21:12:00,51.4,38.5,30.12,SW,225,2.9,4.0,61,0.00,,,0.00,0.00,VWS V14.01,2013-01-22 05:12:00,
2013-01-21 21:15:00,50.0,40.2,30.12,SSW,202,2.0,3.6,69,0.00,,,0.00,0.00,VWS V14.01,2013-01-22 05:15:00,
2013-01-21 21:17:00,51.3,38.3,30.12,SSW,202,2.7,4.0,61,0.00,,,0.00,0.00,VWS V14.01,2013-01-22 05:17:00,
2013-01-21 21:22:00,51.4,38.5,30.12,SW,225,2.5,4.0,61,0.00,,,0.00,0.00,VWS V14.01,2013-01-22 05:22:00,
2013-01-21 21:27:00,50.9,38.4,30.12,SSW,202,1.3,4.0,62,0.00,,,0.00,0.00,VWS V14.01,2013-01-22 05:27:00,
2013-01-21 21:30:00,49.5,40.5,30.12,SSW,202,2.0,3.8,71,0.00,,,0.00,0.00,VWS V14.01,2013-01-22 05:30:00,
2013-01-21 21:32:00,50.5,38.4,30.12,SSW,202,2.5,3.4,63,0.00,,,0.00,0.00,VWS V14.01,2013-01-22 05:32:00,
2013-01-21 21:37:00,50.4,38.3,30.12,SSW,202,2.5,3.6,63,0.00,,,0.00,0.00,VWS V14.01,2013-01-22 05:37:00,
2013-01-21 21:42:00,50.5,38.8,30.12,SSW,202,1.6,3.6,64,0.00,,,0.00,0.00,VWS V14.01,2013-01-22 05:42:00,
2013-01-21 21:45:00,49.8,40.8,30.12,SSW,202,0.0,3.4,71,0.00,,,0.00,0.00,VWS V14.01,2013-01-22 05:45:00,
2013-01-21 21:47:00,50.2,39.3,30.12,SSW,202,3.6,3.6,66,0.00,,,0.00,0.00,VWS V14.01,2013-01-22 05:47:00,
2013-01-21 21:52:00,50.0,39.1,30.12,SW,225,2.2,3.6,66,0.00,,,0.00,0.00,VWS V14.01,2013-01-22 05:52:00,
2013-01-21 21:57:00,49.8,39.7,30.12,SSW,202,1.3,3.6,68,0.00,,,0.00,0.00,VWS V14.01,2013-01-22 05:57:00,
2013-01-21 22:00:00,49.5,40.1,30.12,SW,225,2.9,3.6,70,0.00,,,0.00,0.00,VWS V14.01,2013-01-22 06:00:00,
2013-01-21 22:02:00,49.8,39.7,30.12,SSW,202,2.9,3.1,68,0.00,,,0.00,0.00,VWS V14.01,2013-01-22 06:02:00,
2013-01-21 22:08:00,49.8,40.1,30.12,SSW,202,2.9,3.4,69,0.00,,,0.00,0.00,VWS V14.01,2013-01-22 06:08:00,
2013-01-21 22:13:00,50.0,40.2,30.12,WSW,248,2.5,3.6,69,0.00,,,0.00,0.00,VWS V14.01,2013-01-22 06:13:00,
2013-01-21 22:15:00,48.9,40.3,30.09,SW,225,2.7,3.6,72,0.00,,,0.00,0.00,VWS V14.01,2013-01-22 06:15:00,
2013-01-21 22:18:00,49.6,40.3,30.12,South,180,3.8,3.8,70,0.00,,,0.00,0.00,VWS V14.01,2013-01-22 06:18:00,
2013-01-21 22:23:00,49.5,40.1,30.12,SSW,202,1.6,3.8,70,0.00,,,0.00,0.00,VWS V14.01,2013-01-22 06:23:00,
2013-01-21 22:28:00,49.5,40.5,30.12,West,270,1.1,3.8,71,0.00,,,0.00,0.00,VWS V14.01,2013-01-22 06:28:00,
2013-01-21 22:30:00,48.9,40.3,30.09,SSW,202,2.5,3.4,72,0.00,,,0.00,0.00,VWS V14.01,2013-01-22 06:30:00,
2013-01-21 22:33:00,49.3,40.3,30.12,SW,225,2.9,3.4,71,0.00,,,0.00,0.00,VWS V14.01,2013-01-22 06:33:00,
2013-01-21 22:38:00,49.3,40.3,30.12,SW,225,3.1,3.4,71,0.00,,,0.00,0.00,VWS V14.01,2013-01-22 06:38:00,
2013-01-21 22:43:00,49.8,40.8,30.12,SSW,202,2.5,3.4,71,0.00,,,0.00,0.00,VWS V14.01,2013-01-22 06:43:00,
2013-01-21 22:45:00,48.4,40.1,30.06,SSW,202,0.0,2.7,73,0.00,,,0.00,0.00,VWS V14.01,2013-01-22 06:45:00,
2013-01-21 22:48:00,49.8,40.4,30.12,SSW,202,2.0,3.4,70,0.00,,,0.00,0.00,VWS V14.01,2013-01-22 06:48:00,
2013-01-21 22:53:00,49.8,40.4,30.12,SSW,202,2.5,3.6,70,0.00,,,0.00,0.00,VWS V14.01,2013-01-22 06:53:00,
2013-01-21 22:58:00,49.6,40.3,30.12,SSW,202,1.1,3.6,70,0.00,,,0.00,0.00,VWS V14.01,2013-01-22 06:58:00,
2013-01-21 23:00:00,48.6,40.7,30.06,South,180,1.3,3.1,74,0.00,,,0.00,0.00,VWS V14.01,2013-01-22 07:00:00,
2013-01-21 23:03:00,49.5,40.5,30.12,SW,225,1.6,2.9,71,0.00,,,0.00,0.00,VWS V14.01,2013-01-22 07:03:00,
2013-01-21 23:08:00,49.1,40.1,30.09,SSW,202,2.7,2.9,71,0.00,,,0.00,0.00,VWS V14.01,2013-01-22 07:08:00,
2013-01-21 23:13:00,48.9,40.3,30.09,SSW,202,2.9,3.4,72,0.00,,,0.00,0.00,VWS V14.01,2013-01-22 07:13:00,
2013-01-21 23:15:00,48.6,40.7,30.06,SSW,202,0.0,3.4,74,0.00,,,0.00,0.00,VWS V14.01,2013-01-22 07:15:00,
2013-01-21 23:18:00,49.1,40.5,30.09,SW,225,2.2,3.4,72,0.00,,,0.00,0.00,VWS V14.01,2013-01-22 07:18:00,
2013-01-21 23:23:00,48.7,40.1,30.09,SSW,202,1.6,3.4,72,0.00,,,0.00,0.00,VWS V14.01,2013-01-22 07:23:00,
2013-01-21 23:28:00,48.9,40.7,30.09,SSW,202,2.9,3.4,73,0.00,,,0.00,0.00,VWS V14.01,2013-01-22 07:28:00,
2013-01-21 23:30:00,48.7,40.8,30.06,South,180,2.7,3.6,74,0.00,,,0.00,0.00,VWS V14.01,2013-01-22 07:30:00,
2013-01-21 23:33:00,48.9,40.7,30.09,SW,225,1.3,2.7,73,0.00,,,0.00,0.00,VWS V14.01,2013-01-22 07:33:00,
2013-01-21 23:38:00,48.7,40.5,30.06,SSW,202,0.0,2.7,73,0.00,,,0.00,0.00,VWS V14.01,2013-01-22 07:38:00,
2013-01-21 23:43:00,48.4,40.1,30.06,SSW,202,0.0,2.7,73,0.00,,,0.00,0.00,VWS V14.01,2013-01-22 07:43:00,
2013-01-21 23:45:00,48.6,40.3,30.06,NW,315,0.0,5.6,73,0.00,,,0.00,0.00,VWS V14.01,2013-01-22 07:45:00,
2013-01-21 23:48:00,48.4,40.5,30.06,SSW,202,3.1,3.1,74,0.00,,,0.00,0.00,VWS V14.01,2013-01-22 07:48:00,
2013-01-21 23:53:00,48.4,40.1,30.06,SSW,202,0.0,3.1,73,0.00,,,0.00,0.00,VWS V14.01,2013-01-22 07:53:00,
2013-01-21 23:58:00,48.4,40.5,30.06,SSW,202,0.9,3.1,74,0.00,,,0.00,0.00,VWS V14.01,2013-01-22 07:58:00,